Melk, Austria
Current Conditions -  °F | °C
As of 5:50 AM on Saturday 25 Oct 2014 (Local Time) from LOXT Reporting Station
Broken Clouds Broken Clouds  
Wind Chill: 38°   Ceiling: 6000
Heat Index: 41°   Visibility: 4mi
Dew Point: 37°   Wind: 5mph
Humidity: 87%   Direction: 40°NE
Pressure: 30.21"   Gusts: NA
Location:  48.22°N, 15.32°E
Report Text: LOXT 250350Z 04004KT 7000 SCT050SC BKN060SC 05/03 Q1023 RMK OVC
Loading
Personal Weather Stations






























Interactive Weather Map
Tropical Storm Tracking
New forecast layout! Learn more

10-Day Weather Forecast

Advertisements
Track Severe Weather on mobile